createdAt,value
2022-08-20T00:06:29.752Z,100049.47
2022-08-20T00:11:36.570Z,100044.72
2022-08-20T00:16:43.954Z,100040.84
2022-08-20T00:21:50.957Z,100046.53
2022-08-20T00:27:09.573Z,100038.97
2022-08-20T00:32:15.733Z,100036.31
2022-08-20T00:37:25.268Z,100029.34
2022-08-20T00:42:33.901Z,100032.22
2022-08-20T00:47:41.437Z,100036.09
2022-08-20T00:58:35.163Z,100056.34
2022-08-20T01:03:47.443Z,100056.78
2022-08-20T01:09:07.255Z,100054.53
2022-08-20T01:14:32.650Z,100051.63
2022-08-20T01:19:45.477Z,100045.91
2022-08-20T01:24:57.669Z,100038.31
2022-08-20T01:30:14.023Z,100040.38
2022-08-20T01:35:26.078Z,100039.75
2022-08-20T01:40:46.758Z,100044.28
2022-08-20T01:46:01.939Z,100048.16
2022-08-20T01:51:19.452Z,100048.34
2022-08-20T01:56:31.592Z,100046.09
2022-08-20T02:02:03.383Z,100052.84
2022-08-20T02:07:09.949Z,100056.72
2022-08-20T02:12:19.461Z,100059.38
2022-08-20T02:17:29.348Z,100048.13
2022-08-20T02:22:49.823Z,100057.75
2022-08-20T02:27:58.092Z,100055.28
2022-08-20T02:33:06.849Z,100058.94
2022-08-20T02:38:13.731Z,100057.94
2022-08-20T02:43:28.511Z,100067.94
2022-08-20T02:48:35.074Z,100072.66
2022-08-20T02:53:45.696Z,100068.16
2022-08-20T02:58:52.064Z,100067.75
2022-08-20T03:04:11.076Z,100070.22
2022-08-20T03:09:20.396Z,100076.34
2022-08-20T03:14:26.599Z,100073.69
2022-08-20T03:19:37.132Z,100071.41
2022-08-20T03:24:43.224Z,100070.59
2022-08-20T03:29:52.835Z,100062.81
2022-08-20T03:35:03.093Z,100054.84
2022-08-20T03:40:11.454Z,100053.41
2022-08-20T03:45:20.227Z,100053.63
2022-08-20T03:50:31.639Z,100058.94
2022-08-20T03:55:54.001Z,100059.97
2022-08-20T04:01:00.732Z,100054.81
2022-08-20T04:06:07.781Z,100058.50
2022-08-20T04:11:17.804Z,100066.06
2022-08-20T04:16:23.749Z,100064.63
2022-08-20T04:21:40.364Z,100064.41
2022-08-20T04:26:57.826Z,100065.66
2022-08-20T04:32:17.920Z,100078.09
2022-08-20T04:37:32.253Z,100071.78
2022-08-20T04:42:57.727Z,100083.25
2022-08-20T04:48:07.107Z,100086.69
2022-08-20T04:53:31.370Z,100098.16
2022-08-20T04:58:50.064Z,100104.50
2022-08-20T05:03:59.894Z,100107.97
2022-08-20T05:09:10.281Z,100107.78
2022-08-20T05:14:18.505Z,100102.47
2022-08-20T05:19:39.025Z,100109.44
2022-08-20T05:25:06.500Z,100109.03
2022-08-20T05:30:16.797Z,100121.69
2022-08-20T05:35:26.369Z,100127.00
2022-08-20T05:40:42.449Z,100127.63
2022-08-20T05:45:56.881Z,100118.63
2022-08-20T05:51:01.472Z,100134.19
2022-08-20T05:56:11.769Z,100136.25
2022-08-20T06:01:16.960Z,100134.41
2022-08-20T06:06:44.345Z,100144.06
2022-08-20T06:11:53.655Z,100137.06
2022-08-20T06:17:08.351Z,100147.31
2022-08-20T06:22:27.755Z,100145.47
2022-08-20T06:27:38.142Z,100151.00
2022-08-20T06:32:45.168Z,100150.38
2022-08-20T06:37:49.460Z,100156.31
2022-08-20T06:43:02.006Z,100148.78
2022-08-20T06:48:15.208Z,100149.63
2022-08-20T06:53:37.277Z,100151.88
2022-08-20T06:58:59.222Z,100160.47
2022-08-20T07:04:11.558Z,100168.44
2022-08-20T07:09:16.489Z,100170.53
2022-08-20T07:14:43.951Z,100173.22
2022-08-20T07:20:00.036Z,100187.31
2022-08-20T07:25:11.847Z,100194.09
2022-08-20T07:30:55.850Z,100199.44
2022-08-20T07:36:07.583Z,100199.84
2022-08-20T07:41:15.054Z,100197.59
2022-08-20T07:46:24.421Z,100206.50
2022-08-20T07:51:44.442Z,100206.09
2022-08-20T07:56:49.687Z,100208.94
2022-08-20T08:01:58.951Z,100207.50
2022-08-20T08:07:03.480Z,100228.59
2022-08-20T08:12:11.162Z,100223.28
2022-08-20T08:17:21.854Z,100227.59
2022-08-20T08:27:35.983Z,100225.34
2022-08-20T08:33:04.237Z,100226.78
2022-08-20T08:38:09.225Z,100232.94
2022-08-20T08:43:21.220Z,100230.69
2022-08-20T08:48:35.475Z,100229.47
2022-08-20T08:53:48.965Z,100237.03
2022-08-20T08:58:55.818Z,100244.66
2022-08-20T09:04:05.269Z,100239.94
2022-08-20T09:09:29.492Z,100233.59
2022-08-20T09:14:34.282Z,100238.91
2022-08-20T09:19:52.707Z,100233.63
2022-08-20T09:24:57.652Z,100239.56
2022-08-20T09:30:06.467Z,100239.56
2022-08-20T09:35:14.346Z,100238.13
2022-08-20T09:40:21.363Z,100239.59
2022-08-20T09:45:33.284Z,100243.47
2022-08-20T09:50:49.882Z,100234.47
2022-08-20T09:56:09.218Z,100228.53
2022-08-20T10:01:27.369Z,100235.09
2022-08-20T10:06:37.729Z,100234.25
2022-08-20T10:11:46.481Z,100228.31
2022-08-20T10:17:06.273Z,100230.41
2022-08-20T10:22:21.505Z,100234.91
2022-08-20T10:27:26.591Z,100235.53
2022-08-20T10:32:34.928Z,100234.50
2022-08-20T10:38:09.276Z,100233.47
2022-08-20T10:43:30.242Z,100233.47
2022-08-20T10:48:40.951Z,100240.88
2022-08-20T10:53:50.678Z,100236.16
2022-08-20T10:59:01.220Z,100237.59
2022-08-20T11:04:15.807Z,100243.31
2022-08-20T11:09:31.972Z,100244.75
2022-08-20T11:14:38.687Z,100242.88
2022-08-20T11:19:47.236Z,100253.53
2022-08-20T11:24:56.244Z,100257.66
2022-08-20T11:30:06.558Z,100257.66
2022-08-20T11:35:41.065Z,100265.88
2022-08-20T11:40:47.249Z,100266.88
2022-08-20T11:46:01.745Z,100270.16
2022-08-20T11:51:17.052Z,100280.16
2022-08-20T11:56:48.274Z,100270.72
2022-08-20T12:02:12.536Z,100274.00
2022-08-20T12:07:24.435Z,100263.31
2022-08-20T12:12:39.584Z,100270.63
2022-08-20T12:17:52.946Z,100268.38
2022-08-20T12:28:25.891Z,100270.16
2022-08-20T12:33:49.887Z,100268.13
2022-08-20T12:39:08.784Z,100270.16
2022-08-20T12:44:15.818Z,100274.03
2022-08-20T12:49:20.821Z,100267.28
2022-08-20T12:54:32.700Z,100271.59
2022-08-20T12:59:41.484Z,100263.31
2022-08-20T13:04:52.546Z,100268.06
2022-08-20T13:10:01.849Z,100265.81
2022-08-20T13:15:18.478Z,100274.63
2022-08-20T13:20:55.007Z,100276.66
2022-08-20T13:26:04.224Z,100276.25
2022-08-20T13:31:30.334Z,100274.41
2022-08-20T13:36:37.515Z,100283.47
2022-08-20T13:41:44.854Z,100266.00
2022-08-20T13:47:03.526Z,100273.22
2022-08-20T13:52:16.991Z,100267.06
2022-08-20T13:57:27.756Z,100263.59
2022-08-20T14:02:48.102Z,100256.00
2022-08-20T14:07:52.612Z,100258.69
2022-08-20T14:12:59.675Z,100247.38
2022-08-20T14:18:16.260Z,100251.28
2022-08-20T14:23:21.102Z,100257.88
2022-08-20T14:28:33.682Z,100251.72
2022-08-20T14:33:44.892Z,100250.88
2022-08-20T14:38:55.908Z,100255.66
2022-08-20T14:44:08.201Z,100256.25
2022-08-20T14:49:16.921Z,100252.56
2022-08-20T14:54:21.058Z,100252.94
2022-08-20T14:59:28.206Z,100254.00
2022-08-20T15:04:34.329Z,100253.16
2022-08-20T15:09:41.376Z,100240.47
2022-08-20T15:14:49.646Z,100245.56
2022-08-20T15:19:59.621Z,100248.03
2022-08-20T15:25:07.081Z,100248.25
2022-08-20T15:30:15.153Z,100242.13
2022-08-20T15:35:25.656Z,100229.81
2022-08-20T15:40:35.095Z,100243.16
2022-08-20T15:45:49.117Z,100250.16
2022-08-20T15:51:15.400Z,100251.19
2022-08-20T15:56:34.410Z,100261.88
2022-08-20T16:01:55.895Z,100265.78
2022-08-20T16:07:13.165Z,100272.16
2022-08-20T16:12:25.070Z,100289.03
2022-08-20T16:17:37.456Z,100296.03
2022-08-20T16:22:50.161Z,100297.88
2022-08-20T16:33:55.430Z,100290.69
2022-08-20T16:39:08.851Z,100298.41
2022-08-20T16:44:22.789Z,100303.13
2022-08-20T16:49:31.571Z,100299.22
2022-08-20T16:54:45.989Z,100301.47
2022-08-20T17:00:11.750Z,100304.34
2022-08-20T17:05:17.461Z,100301.06
2022-08-20T17:10:49.613Z,100300.44
2022-08-20T17:16:03.528Z,100299.41
2022-08-20T17:21:23.116Z,100296.13
2022-08-20T17:26:37.005Z,100306.75
2022-08-20T17:31:45.617Z,100294.03
2022-08-20T17:37:13.491Z,100306.91
2022-08-20T17:42:33.218Z,100309.16
2022-08-20T17:47:53.757Z,100309.56
2022-08-20T17:53:05.523Z,100308.91
2022-08-20T17:58:23.668Z,100311.59
2022-08-20T18:03:32.328Z,100317.94
2022-08-20T18:08:46.554Z,100326.94
2022-08-20T18:14:24.216Z,100329.19
2022-08-20T18:19:54.761Z,100322.41
2022-08-20T18:25:08.692Z,100324.47
2022-08-20T18:30:26.284Z,100324.88
2022-08-20T18:40:48.621Z,100327.28
2022-08-20T18:45:57.809Z,100330.56
2022-08-20T18:51:25.439Z,100329.53
2022-08-20T18:56:51.465Z,100335.66
2022-08-20T19:02:12.741Z,100337.03
2022-08-20T19:07:19.006Z,100335.19
2022-08-20T19:12:58.695Z,100335.19
2022-08-20T19:18:17.058Z,100327.41
2022-08-20T19:23:39.006Z,100332.94
2022-08-20T19:29:27.086Z,100339.09
2022-08-20T19:35:00.130Z,100340.28
2022-08-20T19:40:16.418Z,100342.50
2022-08-20T19:51:21.782Z,100348.66
2022-08-20T19:56:29.247Z,100348.22
2022-08-20T20:01:41.656Z,100346.59
2022-08-20T20:06:59.923Z,100351.28
2022-08-20T20:12:24.588Z,100347.00
2022-08-20T20:17:48.939Z,100339.59
2022-08-20T20:23:21.197Z,100352.06
2022-08-20T20:28:31.374Z,100359.00
2022-08-20T20:33:44.352Z,100348.13
2022-08-20T20:39:00.113Z,100354.47
2022-08-20T20:44:07.623Z,100344.84
2022-08-20T20:49:30.355Z,100345.06
2022-08-20T20:54:54.608Z,100346.28
2022-08-20T21:00:10.740Z,100346.28
2022-08-20T21:05:27.911Z,100342.59
2022-08-20T21:10:48.061Z,100347.28
2022-08-20T21:16:01.837Z,100348.31
2022-08-20T21:21:12.595Z,100343.38
2022-08-20T21:26:19.909Z,100342.53
2022-08-20T21:31:27.767Z,100342.75
2022-08-20T21:36:44.821Z,100352.78
2022-08-20T21:42:12.302Z,100361.56
2022-08-20T21:47:35.898Z,100355.63
2022-08-20T21:53:00.152Z,100342.50
2022-08-20T21:58:18.594Z,100342.72
2022-08-20T22:03:28.458Z,100349.44
2022-08-20T22:08:35.784Z,100342.03
2022-08-20T22:13:42.084Z,100343.44
2022-08-20T22:18:48.739Z,100340.50
2022-08-20T22:23:56.583Z,100338.25
2022-08-20T22:29:10.214Z,100332.47
2022-08-20T22:34:19.631Z,100335.53
2022-08-20T22:39:28.420Z,100338.56
2022-08-20T22:44:40.635Z,100331.13
2022-08-20T22:49:49.545Z,100328.25
2022-08-20T22:54:55.365Z,100319.19
2022-08-20T23:00:04.606Z,100315.28
2022-08-20T23:05:13.659Z,100315.66
2022-08-20T23:16:05.454Z,100313.97
2022-08-20T23:21:22.454Z,100321.47
2022-08-20T23:26:52.527Z,100323.69
2022-08-20T23:32:04.693Z,100325.72
2022-08-20T23:37:11.625Z,100327.56
2022-08-20T23:42:25.333Z,100324.47
2022-08-20T23:47:48.966Z,100320.16
2022-08-20T23:52:55.152Z,100322.56
2022-08-20T23:58:14.263Z,100313.13
